Weather History for KGGE - April, 2014

Change the Weather History Date:

Sunday, April 6, 2014

  Actual Average Record
Temperature  
Mean Temperature 58 °F -  
Max Temperature 62 °F 72 °F 73 °F (2015)
Min Temperature 55 °F 48 °F 35 °F (2011)
Degree Days  
Heating Degree Days 6    
Growing Degree Days 8 (Base 50)    
Moisture  
Dew Point 51 °F    
Average Humidity 76    
Maximum Humidity 100    
Minimum Humidity 59    
Precipitation  
Precipitation 0.00 in - - ()
Sea Level Pressure  
Sea Level Pressure 30.06 in    
Wind  
Wind Speed 9 mph (NE)    
Max Wind Speed 16 mph    
Max Gust Speed 23 mph    
Visibility 10 miles    
Events      
Averages and records for this station are not official NWS values.
T = Trace of Precipitation, MM = Missing Value Source: NWS Daily Summary

Daily Weather History Graph

Daily Weather History Graph

Search for Another Location

Airport or City:

Trip Planner

Search our weather history database for the weather conditions in past years. The results will help you decide how hot, cold, wet, or windy it might be!

Date:

Astronomy

Apr. 06, 2014 Rise Set
Actual Time 6:58 AM EDT 7:41 PM EDT
Civil Twilight 6:33 AM EDT 8:06 PM EDT
Nautical Twilight 6:03 AM EDT 8:36 PM EDT
Astronomical Twilight 5:33 AM EDT 9:06 PM EDT
Moon 12:07 PM EDT (4/6) 1:26 AM EDT (4/6)
Length of Visible Light 13h 33m
Length of Day
12h 42m
Waxing Crescent, 43% of the Moon is Illuminated
Apr 6
Waxing Crescent
Apr 7
First Quarter
Apr 15
Full
Apr 22
Last Quarter
Apr 29
New

Hourly Weather History & Observations

Time (EDT) Temp. Dew Point Humidity Pressure Visibility Wind Dir Wind Speed Gust Speed Precip Events Conditions
12:15 AM 62.6 °F 62.6 °F 100% 30.00 in 10.0 mi West 3.5 mph - N/A   Mostly Cloudy
12:35 AM 60.8 °F 60.8 °F 100% 30.01 in 10.0 mi WSW 6.9 mph - N/A   Scattered Clouds
12:55 AM 62.6 °F 60.8 °F 94% 30.01 in 10.0 mi NNW 4.6 mph - N/A   Clear
1:15 AM 62.6 °F 59.0 °F 88% 30.01 in 10.0 mi NNE 3.5 mph - N/A   Clear
1:35 AM 60.8 °F 55.4 °F 82% 30.01 in 10.0 mi NNE 5.8 mph - N/A   Clear
1:55 AM 60.8 °F 55.4 °F 82% 30.01 in 10.0 mi NE 5.8 mph - N/A   Clear
2:15 AM 60.8 °F 55.4 °F 82% 30.01 in 10.0 mi NE 4.6 mph - N/A   Clear
2:35 AM 59.0 °F 53.6 °F 82% 30.01 in 10.0 mi NE 3.5 mph - N/A   Clear
2:55 AM 60.8 °F 53.6 °F 77% 30.01 in 10.0 mi NE 8.1 mph - N/A   Clear
3:15 AM 60.8 °F 53.6 °F 77% 30.00 in 10.0 mi NE 9.2 mph - N/A   Clear
3:35 AM 60.8 °F 57.2 °F 88% 30.00 in 10.0 mi ENE 11.5 mph 16.1 mph N/A   Clear
3:55 AM 60.8 °F 57.2 °F 88% 30.00 in 10.0 mi ENE 11.5 mph 19.6 mph N/A   Clear
4:15 AM 60.8 °F 55.4 °F 82% 30.00 in 10.0 mi ENE 10.4 mph - N/A   Clear
4:35 AM 59.0 °F 55.4 °F 88% 30.01 in 10.0 mi ENE 11.5 mph 16.1 mph N/A   Clear
4:55 AM 59.0 °F 55.4 °F 88% 30.01 in 10.0 mi ENE 11.5 mph - N/A   Scattered Clouds
5:15 AM 59.0 °F 55.4 °F 88% 30.02 in 10.0 mi ENE 12.7 mph 18.4 mph N/A   Overcast
5:35 AM 59.0 °F 55.4 °F 88% 30.03 in 10.0 mi ENE 15.0 mph - N/A   Overcast
5:55 AM 57.2 °F 55.4 °F 94% 30.03 in 10.0 mi ENE 13.8 mph 18.4 mph N/A   Mostly Cloudy
6:15 AM 57.2 °F 53.6 °F 88% 30.05 in 10.0 mi ENE 12.7 mph 20.7 mph N/A   Scattered Clouds
6:35 AM 57.2 °F 53.6 °F 88% 30.05 in 10.0 mi ENE 11.5 mph 19.6 mph N/A   Scattered Clouds
6:55 AM 57.2 °F 51.8 °F 82% 30.06 in 10.0 mi ENE 13.8 mph 19.6 mph N/A   Overcast
7:15 AM 55.4 °F 51.8 °F 88% 30.06 in 10.0 mi ENE 15.0 mph 21.9 mph N/A   Overcast
7:35 AM 55.4 °F 51.8 °F 88% 30.07 in 10.0 mi ENE 8.1 mph 19.6 mph N/A   Scattered Clouds
7:55 AM 55.4 °F 51.8 °F 88% 30.06 in 10.0 mi NE 12.7 mph 17.3 mph N/A   Scattered Clouds
8:15 AM 55.4 °F 50.0 °F 82% 30.06 in 10.0 mi ENE 13.8 mph - N/A   Scattered Clouds
8:35 AM 55.4 °F 50.0 °F 82% 30.07 in 10.0 mi ENE 16.1 mph 20.7 mph N/A   Clear
8:55 AM 55.4 °F 48.2 °F 77% 30.08 in 10.0 mi ENE 12.7 mph 23.0 mph N/A   Scattered Clouds
9:15 AM 55.4 °F 46.4 °F 72% 30.08 in 10.0 mi NE 10.4 mph 16.1 mph N/A   Scattered Clouds
9:35 AM 55.4 °F 46.4 °F 72% 30.09 in 10.0 mi NE 10.4 mph 18.4 mph N/A   Clear
9:55 AM 57.2 °F 46.4 °F 67% 30.10 in 10.0 mi NE 12.7 mph 18.4 mph N/A   Clear
10:15 AM 57.2 °F 46.4 °F 67% 30.09 in 10.0 mi NE 11.5 mph 18.4 mph N/A   Clear
10:35 AM 57.2 °F 46.4 °F 67% 30.10 in 10.0 mi NE 12.7 mph - N/A   Clear
10:55 AM 59.0 °F 46.4 °F 63% 30.11 in 10.0 mi ENE 12.7 mph 18.4 mph N/A   Clear
11:15 AM 59.0 °F 44.6 °F 59% 30.12 in 10.0 mi NE 12.7 mph 19.6 mph N/A   Clear
11:35 AM 59.0 °F 44.6 °F 59% 30.12 in 10.0 mi ENE 12.7 mph 20.7 mph N/A   Clear
11:55 AM 59.0 °F 44.6 °F 59% 30.12 in 10.0 mi ENE 11.5 mph - N/A   Clear
12:15 PM 59.0 °F 44.6 °F 59% 30.12 in 10.0 mi NE 15.0 mph - N/A   Scattered Clouds
12:35 PM 59.0 °F 44.6 °F 59% 30.12 in 10.0 mi NE 10.4 mph 16.1 mph N/A   Overcast
12:55 PM 59.0 °F 44.6 °F 59% 30.12 in 10.0 mi NE 11.5 mph 18.4 mph N/A   Mostly Cloudy
1:15 PM 59.0 °F 46.4 °F 63% 30.12 in 10.0 mi ENE 9.2 mph 17.3 mph N/A   Mostly Cloudy
1:35 PM 59.0 °F 46.4 °F 63% 30.11 in 10.0 mi ENE 12.7 mph 19.6 mph N/A   Overcast
1:55 PM 59.0 °F 46.4 °F 63% 30.11 in 10.0 mi ENE 11.5 mph - N/A   Overcast
2:15 PM 59.0 °F 48.2 °F 67% 30.11 in 10.0 mi ENE 8.1 mph - N/A   Overcast
2:35 PM 60.8 °F 50.0 °F 68% 30.10 in 10.0 mi East 8.1 mph - N/A   Overcast
2:55 PM 60.8 °F 50.0 °F 68% 30.10 in 10.0 mi ENE 8.1 mph - N/A   Overcast
3:15 PM 60.8 °F 50.0 °F 68% 30.08 in 10.0 mi ENE 11.5 mph - N/A   Overcast
3:35 PM 60.8 °F 50.0 °F 68% 30.08 in 10.0 mi ENE 9.2 mph - N/A   Overcast
4:15 PM 59.0 °F 50.0 °F 72% 30.11 in 10.0 mi NE 6.9 mph - N/A   Overcast
4:55 PM 59.0 °F 48.2 °F 67% 30.10 in 10.0 mi NE 11.5 mph 18.4 mph N/A   Overcast
5:15 PM 59.0 °F 50.0 °F 72% 30.09 in 10.0 mi ENE 6.9 mph - N/A   Overcast
5:35 PM 59.0 °F 50.0 °F 72% 30.08 in 10.0 mi East 5.8 mph - N/A   Overcast
5:55 PM 60.8 °F 50.0 °F 68% 30.08 in 10.0 mi ENE 5.8 mph - N/A   Overcast
6:15 PM 60.8 °F 50.0 °F 68% 30.09 in 10.0 mi NE 5.8 mph - N/A   Mostly Cloudy
6:35 PM 60.8 °F 50.0 °F 68% 30.08 in 10.0 mi ENE 5.8 mph - N/A   Mostly Cloudy
6:55 PM 59.0 °F 50.0 °F 72% 30.09 in 10.0 mi NE 4.6 mph - N/A   Mostly Cloudy
7:15 PM 59.0 °F 50.0 °F 72% 30.09 in 10.0 mi NE 4.6 mph - N/A   Overcast
7:35 PM 59.0 °F 50.0 °F 72% 30.08 in 10.0 mi NE 6.9 mph - N/A   Light Drizzle
7:55 PM 59.0 °F 50.0 °F 72% 30.08 in 10.0 mi ENE 6.9 mph - N/A   Overcast
8:15 PM 59.0 °F 51.8 °F 77% 30.08 in 10.0 mi NE 8.1 mph - N/A   Overcast
8:35 PM 59.0 °F 51.8 °F 77% 30.08 in 10.0 mi NE 6.9 mph - N/A   Overcast
8:55 PM 59.0 °F 51.8 °F 77% 30.07 in 10.0 mi ENE 9.2 mph - N/A   Overcast
9:15 PM 59.0 °F 51.8 °F 77% 30.06 in 10.0 mi ENE 9.2 mph - N/A   Overcast
9:35 PM 57.2 °F 51.8 °F 82% 30.05 in 10.0 mi East 8.1 mph - N/A   Overcast
9:55 PM 59.0 °F 51.8 °F 77% 30.03 in 10.0 mi ENE 12.7 mph 20.7 mph N/A   Overcast
10:15 PM 57.2 °F 51.8 °F 82% 30.05 in 10.0 mi ENE 8.1 mph - N/A   Overcast
10:35 PM 59.0 °F 51.8 °F 77% 30.06 in 10.0 mi ENE 8.1 mph - N/A   Overcast
10:55 PM 57.2 °F 50.0 °F 77% 30.04 in 10.0 mi East 10.4 mph 16.1 mph N/A   Overcast
11:15 PM 57.2 °F 51.8 °F 82% 30.03 in 10.0 mi ENE 6.9 mph 18.4 mph N/A   Overcast
11:35 PM 57.2 °F 51.8 °F 82% 30.03 in 10.0 mi ENE 12.7 mph 16.1 mph N/A   Overcast
11:55 PM 57.2 °F 51.8 °F 82% 30.02 in 10.0 mi ENE 6.9 mph - N/A   Overcast